Time;durP1;ratioP1;P1;durP2;ratioP2;P2;SDS_P1;SDS_P2;PMS_P1;PMS_P2;Temp;Humidity;BMP_temperature;BMP_pressure;BME280_temperature;BME280_humidity;BME280_pressure;Samples;Min_cycle;Max_cycle;Signal;HPM_P1;HPM_P2
2022/07/04 00:00:19;;;;;;;2.40;2.30;;;;;;;;;;5011250;28;20656;-91
2022/07/04 00:02:45;;;;;;;2.85;2.03;;;;;;;;;;5008905;28;20287;-90
2022/07/04 00:05:12;;;;;;;2.40;2.20;;;;;;;;;;5010890;28;20198;-89
2022/07/04 00:07:39;;;;;;;2.30;2.10;;;;;;;;;;5010495;28;20183;-90
2022/07/04 00:10:05;;;;;;;2.65;2.45;;;;;;;;;;5004452;28;20183;-89
2022/07/04 00:12:31;;;;;;;3.65;2.10;;;;;;;;;;5007307;28;20203;-89
2022/07/04 00:14:57;;;;;;;2.80;2.40;;;;;;;;;;5023430;28;20274;-90
2022/07/04 00:17:23;;;;;;;2.83;2.10;;;;;;;;;;5008090;28;20645;-90
2022/07/04 00:19:49;;;;;;;2.85;1.98;;;;;;;;;;5027122;28;20238;-90
2022/07/04 00:22:15;;;;;;;2.20;2.00;;;;;;;;;;5010080;28;20644;-90
2022/07/04 00:24:41;;;;;;;2.63;1.90;;;;;;;;;;5006128;28;20183;-90
2022/07/04 00:27:07;;;;;;;4.03;2.05;;;;;;;;;;5022249;28;20278;-90
2022/07/04 00:29:33;;;;;;;3.08;1.75;;;;;;;;;;5005415;28;20670;-89
2022/07/04 00:31:59;;;;;;;2.30;1.75;;;;;;;;;;5005011;28;20282;-90
2022/07/04 00:34:25;;;;;;;1.92;1.67;;;;;;;;;;5006130;28;20198;-90
2022/07/04 00:36:52;;;;;;;2.35;1.85;;;;;;;;;;5005551;28;20211;-90
2022/07/04 00:39:18;;;;;;;4.80;1.75;;;;;;;;;;5005368;28;20242;-90
2022/07/04 00:41:44;;;;;;;3.08;1.73;;;;;;;;;;5005357;28;20187;-91
2022/07/04 00:44:11;;;;;;;3.08;1.85;;;;;;;;;;5004923;28;20208;-90
2022/07/04 00:46:37;;;;;;;2.30;1.60;;;;;;;;;;5006442;28;20234;-90
2022/07/04 00:49:04;;;;;;;2.10;1.88;;;;;;;;;;5026943;28;20203;-91
2022/07/04 00:51:30;;;;;;;3.72;1.90;;;;;;;;;;5010454;28;20184;-91
2022/07/04 00:53:56;;;;;;;1.63;1.52;;;;;;;;;;4998440;28;20302;-92
2022/07/04 00:56:23;;;;;;;3.30;2.10;;;;;;;;;;4996150;28;20218;-91
2022/07/04 00:58:50;;;;;;;3.15;1.73;;;;;;;;;;5028609;28;20200;-91
2022/07/04 01:01:16;;;;;;;3.53;1.77;;;;;;;;;;5003921;28;20214;-91
2022/07/04 01:03:42;;;;;;;3.63;1.90;;;;;;;;;;5008886;28;20254;-91
2022/07/04 01:06:08;;;;;;;3.03;2.08;;;;;;;;;;5029105;28;20646;-90
2022/07/04 01:08:36;;;;;;;1.95;1.65;;;;;;;;;;5013641;28;20191;-90
2022/07/04 01:11:02;;;;;;;2.42;1.90;;;;;;;;;;5024655;28;20192;-91
2022/07/04 01:13:28;;;;;;;2.15;2.00;;;;;;;;;;5011607;28;20285;-91
2022/07/04 01:15:55;;;;;;;2.20;2.00;;;;;;;;;;5002983;28;20204;-90
2022/07/04 01:18:21;;;;;;;3.17;2.05;;;;;;;;;;5004077;28;20195;-92
2022/07/04 01:20:47;;;;;;;1.90;1.80;;;;;;;;;;5002819;28;20574;-91
2022/07/04 01:23:13;;;;;;;4.22;2.28;;;;;;;;;;5015238;28;20208;-90
2022/07/04 01:25:39;;;;;;;3.78;2.10;;;;;;;;;;5014577;28;20207;-90
2022/07/04 01:28:06;;;;;;;2.33;2.00;;;;;;;;;;5028365;28;20232;-91
2022/07/04 01:30:33;;;;;;;2.75;2.22;;;;;;;;;;5008915;28;20741;-90
2022/07/04 01:32:59;;;;;;;2.47;2.00;;;;;;;;;;5007038;28;20296;-91
2022/07/04 01:35:25;;;;;;;2.30;1.92;;;;;;;;;;5003164;28;20294;-91
2022/07/04 01:37:51;;;;;;;5.05;2.13;;;;;;;;;;5000839;28;20188;-91
2022/07/04 01:40:17;;;;;;;4.57;1.80;;;;;;;;;;5012569;28;20192;-90
2022/07/04 01:42:44;;;;;;;1.67;1.58;;;;;;;;;;5011863;28;20255;-90
2022/07/04 01:45:10;;;;;;;2.75;1.85;;;;;;;;;;5008226;28;20575;-90
2022/07/04 01:47:37;;;;;;;2.67;2.00;;;;;;;;;;5011418;28;20283;-91
2022/07/04 01:52:55;;;;;;;1.85;1.67;;;;;;;;;;5015671;28;20211;-90
2022/07/04 01:55:21;;;;;;;4.03;1.60;;;;;;;;;;5014234;28;20274;-90
2022/07/04 01:57:47;;;;;;;3.47;1.90;;;;;;;;;;5010755;28;20191;-91
2022/07/04 02:02:58;;;;;;;3.80;1.77;;;;;;;;;;5009121;28;20206;-91
2022/07/04 02:05:24;;;;;;;3.00;1.95;;;;;;;;;;5011778;28;20210;-90
2022/07/04 02:07:50;;;;;;;3.78;2.20;;;;;;;;;;5013298;28;20712;-91
2022/07/04 02:10:16;;;;;;;1.80;1.70;;;;;;;;;;5030378;28;20180;-91
2022/07/04 02:13:01;;;;;;;2.53;1.48;;;;;;;;;;5013924;28;20216;-90
2022/07/04 02:15:31;;;;;;;1.63;1.52;;;;;;;;;;5021823;28;20207;-91
2022/07/04 02:17:58;;;;;;;2.65;1.98;;;;;;;;;;5006231;28;20180;-91
2022/07/04 02:20:24;;;;;;;3.50;1.60;;;;;;;;;;5012086;28;20267;-90
2022/07/04 02:22:50;;;;;;;2.90;1.70;;;;;;;;;;5012826;28;20273;-92
2022/07/04 02:25:16;;;;;;;2.15;1.95;;;;;;;;;;5008221;28;20680;-92
2022/07/04 02:27:45;;;;;;;2.97;1.70;;;;;;;;;;5012794;28;20214;-91
2022/07/04 02:30:11;;;;;;;3.15;1.77;;;;;;;;;;5012028;28;20179;-91
2022/07/04 02:32:37;;;;;;;2.05;1.80;;;;;;;;;;5011189;28;20287;-91
2022/07/04 02:35:04;;;;;;;3.28;2.00;;;;;;;;;;5012340;28;20510;-91
2022/07/04 02:37:30;;;;;;;2.13;1.88;;;;;;;;;;5012154;28;20187;-91
2022/07/04 02:39:56;;;;;;;2.72;2.08;;;;;;;;;;5012615;28;20191;-90
2022/07/04 02:42:22;;;;;;;2.05;1.85;;;;;;;;;;5012015;28;20200;-91
2022/07/04 02:44:48;;;;;;;3.55;2.13;;;;;;;;;;5013240;28;20180;-91
2022/07/04 02:47:14;;;;;;;6.85;2.17;;;;;;;;;;5011740;28;20696;-91
2022/07/04 02:49:40;;;;;;;3.05;2.10;;;;;;;;;;5009763;28;20184;-91
2022/07/04 02:52:06;;;;;;;2.40;2.20;;;;;;;;;;5011824;28;20275;-91
2022/07/04 02:54:32;;;;;;;3.92;2.40;;;;;;;;;;5011788;28;20215;-91
2022/07/04 02:56:58;;;;;;;2.85;2.13;;;;;;;;;;5025812;28;20274;-91
2022/07/04 02:59:24;;;;;;;2.90;2.35;;;;;;;;;;5008579;28;20187;-92
2022/07/04 03:01:50;;;;;;;2.75;1.95;;;;;;;;;;5011510;28;20187;-92
2022/07/04 03:04:16;;;;;;;2.20;1.95;;;;;;;;;;5007442;28;20286;-91
2022/07/04 03:06:42;;;;;;;2.97;1.98;;;;;;;;;;5008434;28;20278;-91
2022/07/04 03:09:09;;;;;;;3.97;2.60;;;;;;;;;;5008511;28;20310;-91
2022/07/04 03:11:35;;;;;;;3.88;2.13;;;;;;;;;;5009213;28;20191;-91
2022/07/04 03:14:01;;;;;;;3.35;2.55;;;;;;;;;;5007255;28;20756;-90
2022/07/04 03:16:27;;;;;;;5.57;2.55;;;;;;;;;;5004794;28;20208;-89
2022/07/04 03:18:53;;;;;;;4.25;2.50;;;;;;;;;;5005898;28;20219;-89
2022/07/04 03:21:19;;;;;;;2.25;2.05;;;;;;;;;;5004808;28;20261;-90
2022/07/04 03:23:57;;;;;;;3.40;2.40;;;;;;;;;;5026740;28;20565;-90
2022/07/04 03:26:24;;;;;;;4.85;2.53;;;;;;;;;;5003381;28;20279;-89
2022/07/04 03:28:49;;;;;;;4.38;2.42;;;;;;;;;;4991071;28;20191;-89
2022/07/04 03:31:15;;;;;;;8.55;2.70;;;;;;;;;;5003341;28;20246;-90
2022/07/04 03:33:41;;;;;;;9.10;2.50;;;;;;;;;;5017846;28;20737;-89
2022/07/04 03:36:07;;;;;;;4.82;2.60;;;;;;;;;;5002905;28;20207;-89
2022/07/04 03:38:33;;;;;;;2.88;2.33;;;;;;;;;;5005598;28;20187;-89
2022/07/04 03:40:59;;;;;;;3.80;2.72;;;;;;;;;;5003764;28;20620;-88
2022/07/04 03:43:25;;;;;;;4.18;2.55;;;;;;;;;;5003606;28;20265;-89
2022/07/04 03:45:51;;;;;;;6.55;2.58;;;;;;;;;;5004757;28;20191;-90
2022/07/04 03:48:17;;;;;;;3.90;2.75;;;;;;;;;;5019157;28;20191;-89
2022/07/04 03:50:43;;;;;;;4.65;2.80;;;;;;;;;;4994469;28;20657;-88
2022/07/04 03:53:09;;;;;;;4.97;2.65;;;;;;;;;;5002856;28;20218;-90
2022/07/04 03:55:35;;;;;;;3.53;3.00;;;;;;;;;;5002622;28;20269;-89
2022/07/04 03:58:04;;;;;;;3.55;2.70;;;;;;;;;;5002157;28;20566;-90
2022/07/04 04:00:30;;;;;;;3.40;2.60;;;;;;;;;;5002963;28;20184;-90
2022/07/04 04:02:56;;;;;;;5.00;2.65;;;;;;;;;;5002324;28;20685;-90
2022/07/04 04:05:30;;;;;;;6.43;2.80;;;;;;;;;;5002982;28;20595;-89
2022/07/04 04:07:57;;;;;;;6.07;2.58;;;;;;;;;;5003821;28;20182;-90
2022/07/04 04:10:24;;;;;;;3.50;2.50;;;;;;;;;;5019192;28;20191;-90
2022/07/04 04:12:50;;;;;;;3.60;2.30;;;;;;;;;;5002944;28;20211;-89
2022/07/04 04:15:16;;;;;;;3.72;2.78;;;;;;;;;;5002266;28;20215;-90
2022/07/04 04:17:42;;;;;;;4.18;2.70;;;;;;;;;;5011830;28;20745;-90
2022/07/04 04:20:08;;;;;;;5.40;2.85;;;;;;;;;;5002725;28;20189;-90
2022/07/04 04:22:34;;;;;;;3.60;2.50;;;;;;;;;;5004205;28;20757;-90
2022/07/04 04:25:00;;;;;;;4.55;3.13;;;;;;;;;;5003725;28;20183;-90
2022/07/04 04:27:26;;;;;;;3.75;2.50;;;;;;;;;;5003380;28;20645;-90
2022/07/04 04:29:52;;;;;;;3.35;3.03;;;;;;;;;;5004161;28;20588;-89
2022/07/04 04:32:18;;;;;;;5.63;2.80;;;;;;;;;;5007417;28;20207;-89
2022/07/04 04:34:44;;;;;;;4.25;2.63;;;;;;;;;;5006632;28;20208;-89
2022/07/04 04:37:11;;;;;;;6.03;2.78;;;;;;;;;;5012302;28;20199;-90
2022/07/04 04:39:37;;;;;;;2.65;2.20;;;;;;;;;;5025920;28;20246;-90
2022/07/04 04:42:03;;;;;;;3.10;2.10;;;;;;;;;;5023256;28;20195;-90
2022/07/04 04:44:29;;;;;;;3.45;2.03;;;;;;;;;;5023392;28;20194;-89
2022/07/04 04:46:54;;;;;;;3.00;2.28;;;;;;;;;;5006533;28;20183;-89
2022/07/04 04:49:20;;;;;;;3.42;2.10;;;;;;;;;;5006045;28;20226;-89
2022/07/04 04:51:46;;;;;;;4.22;2.10;;;;;;;;;;5006269;28;20187;-89
2022/07/04 04:54:12;;;;;;;2.63;1.80;;;;;;;;;;5006078;28;20569;-89
2022/07/04 04:56:38;;;;;;;2.55;1.70;;;;;;;;;;5005635;28;20221;-89
2022/07/04 04:59:04;;;;;;;2.33;2.10;;;;;;;;;;5022054;28;20267;-89
2022/07/04 05:01:30;;;;;;;3.00;1.90;;;;;;;;;;5006129;28;20638;-89
2022/07/04 05:03:56;;;;;;;2.20;1.60;;;;;;;;;;5006180;28;20635;-89
2022/07/04 05:06:22;;;;;;;2.40;1.40;;;;;;;;;;5007316;28;20226;-90
2022/07/04 05:08:48;;;;;;;2.92;1.50;;;;;;;;;;5008324;28;20298;-90
2022/07/04 05:11:14;;;;;;;4.78;1.33;;;;;;;;;;5005864;28;20250;-89
2022/07/04 05:13:40;;;;;;;2.58;1.10;;;;;;;;;;5004540;28;20203;-90
2022/07/04 05:16:07;;;;;;;3.15;1.13;;;;;;;;;;5004881;28;20562;-90
2022/07/04 05:18:32;;;;;;;3.45;1.13;;;;;;;;;;5004175;28;20188;-90
2022/07/04 05:20:59;;;;;;;4.30;1.58;;;;;;;;;;5004798;28;20680;-91
2022/07/04 05:23:25;;;;;;;1.48;0.80;;;;;;;;;;5004671;28;20200;-90
2022/07/04 05:25:51;;;;;;;3.33;1.50;;;;;;;;;;5005099;28;20645;-89
2022/07/04 05:28:17;;;;;;;1.80;1.27;;;;;;;;;;5006216;28;20191;-90
2022/07/04 05:30:43;;;;;;;1.52;0.95;;;;;;;;;;5005196;28;20192;-91
2022/07/04 05:33:09;;;;;;;1.63;1.27;;;;;;;;;;5005585;28;20211;-91
2022/07/04 05:35:35;;;;;;;1.80;1.20;;;;;;;;;;5006667;28;20263;-89
2022/07/04 05:38:01;;;;;;;2.08;1.10;;;;;;;;;;5007207;28;20250;-89
2022/07/04 05:40:28;;;;;;;3.08;1.30;;;;;;;;;;4996876;28;20184;-90
2022/07/04 05:42:54;;;;;;;3.85;1.75;;;;;;;;;;5003095;28;20207;-90
2022/07/04 05:45:20;;;;;;;3.85;1.50;;;;;;;;;;5006596;28;20270;-91
2022/07/04 05:47:46;;;;;;;2.90;1.60;;;;;;;;;;5004891;28;20302;-89
2022/07/04 05:50:12;;;;;;;1.70;1.55;;;;;;;;;;5005512;28;20187;-90
2022/07/04 05:52:38;;;;;;;2.90;1.70;;;;;;;;;;5003562;28;20261;-90
2022/07/04 05:55:04;;;;;;;2.70;1.70;;;;;;;;;;5004779;28;20253;-90
2022/07/04 05:57:30;;;;;;;2.85;1.92;;;;;;;;;;5004675;28;20238;-89
2022/07/04 05:59:56;;;;;;;4.32;2.13;;;;;;;;;;5006500;28;20180;-90
2022/07/04 06:02:22;;;;;;;2.70;1.90;;;;;;;;;;4995366;28;20609;-91
2022/07/04 06:04:48;;;;;;;2.80;1.77;;;;;;;;;;5006522;28;20226;-90
2022/07/04 06:07:13;;;;;;;3.70;1.80;;;;;;;;;;5004837;28;20192;-90
2022/07/04 06:09:39;;;;;;;3.15;2.13;;;;;;;;;;5005055;28;20549;-90
2022/07/04 06:12:05;;;;;;;2.20;2.00;;;;;;;;;;5004334;28;20196;-90
2022/07/04 06:14:32;;;;;;;2.25;2.00;;;;;;;;;;5000191;28;20192;-91
2022/07/04 06:16:58;;;;;;;2.72;2.05;;;;;;;;;;4998864;28;20258;-90
2022/07/04 06:19:24;;;;;;;2.38;1.98;;;;;;;;;;5024881;28;20184;-90
2022/07/04 06:21:50;;;;;;;2.67;2.10;;;;;;;;;;5008032;28;20207;-90
2022/07/04 06:24:16;;;;;;;2.47;2.15;;;;;;;;;;5007957;28;20299;-90
2022/07/04 06:26:44;;;;;;;2.70;1.90;;;;;;;;;;5009084;28;20720;-90
2022/07/04 06:29:10;;;;;;;3.88;2.38;;;;;;;;;;5007784;28;20245;-88
2022/07/04 06:31:36;;;;;;;4.43;2.72;;;;;;;;;;5007890;28;20179;-90
2022/07/04 06:36:49;;;;;;;2.80;2.50;;;;;;;;;;5008938;28;20273;-91
2022/07/04 06:39:15;;;;;;;5.53;2.38;;;;;;;;;;5008543;28;21060;-90
2022/07/04 06:41:41;;;;;;;3.15;2.40;;;;;;;;;;5009397;28;20207;-90
2022/07/04 06:44:06;;;;;;;3.13;2.13;;;;;;;;;;5010551;28;20204;-90
2022/07/04 06:46:32;;;;;;;2.60;2.40;;;;;;;;;;5026052;28;20191;-90
2022/07/04 06:48:58;;;;;;;4.72;2.50;;;;;;;;;;5007850;28;20190;-90
2022/07/04 06:51:25;;;;;;;4.55;3.00;;;;;;;;;;5017556;28;20195;-86
2022/07/04 06:53:51;;;;;;;4.40;2.60;;;;;;;;;;5015732;28;20204;-86
2022/07/04 06:56:17;;;;;;;7.13;2.80;;;;;;;;;;5000039;28;20701;-87
2022/07/04 06:58:43;;;;;;;3.67;2.60;;;;;;;;;;5035915;28;20195;-86
2022/07/04 07:01:09;;;;;;;2.47;2.28;;;;;;;;;;5017376;28;20191;-85
2022/07/04 07:03:35;;;;;;;2.67;1.98;;;;;;;;;;5008405;28;20208;-86
2022/07/04 07:06:02;;;;;;;2.95;2.17;;;;;;;;;;5007043;28;20255;-87
2022/07/04 07:08:29;;;;;;;4.70;2.25;;;;;;;;;;5014997;28;20188;-88
2022/07/04 07:10:55;;;;;;;1.95;1.77;;;;;;;;;;5012483;28;20184;-87
2022/07/04 07:13:21;;;;;;;3.13;2.13;;;;;;;;;;5007430;28;20211;-86
2022/07/04 07:15:47;;;;;;;3.05;2.08;;;;;;;;;;5014896;28;20249;-87
2022/07/04 07:18:13;;;;;;;2.97;2.13;;;;;;;;;;5020854;28;20186;-87
2022/07/04 07:20:39;;;;;;;3.88;1.88;;;;;;;;;;5018822;28;20195;-86
2022/07/04 07:23:05;;;;;;;2.85;1.60;;;;;;;;;;5016417;28;20684;-87
2022/07/04 07:25:31;;;;;;;3.15;1.85;;;;;;;;;;5007843;28;20188;-87
2022/07/04 07:27:58;;;;;;;1.42;1.33;;;;;;;;;;5018091;28;20260;-88
2022/07/04 07:30:24;;;;;;;1.70;1.08;;;;;;;;;;5017674;28;20192;-88
2022/07/04 07:32:50;;;;;;;1.95;1.05;;;;;;;;;;5022621;28;20262;-87
2022/07/04 07:35:16;;;;;;;2.13;1.30;;;;;;;;;;5016921;28;20208;-86
2022/07/04 07:37:42;;;;;;;1.80;1.40;;;;;;;;;;5015158;28;20198;-86
2022/07/04 07:40:08;;;;;;;2.28;1.30;;;;;;;;;;5036363;28;20190;-86
2022/07/04 07:42:35;;;;;;;2.28;1.42;;;;;;;;;;5016969;28;20235;-86
2022/07/04 07:45:01;;;;;;;1.88;1.30;;;;;;;;;;5017180;28;20675;-87
2022/07/04 07:47:28;;;;;;;2.05;1.30;;;;;;;;;;5013088;28;20196;-85
2022/07/04 07:49:54;;;;;;;3.17;1.48;;;;;;;;;;5006116;28;20678;-87
2022/07/04 07:52:20;;;;;;;2.38;1.30;;;;;;;;;;5022312;28;20198;-86
2022/07/04 07:54:46;;;;;;;1.52;1.30;;;;;;;;;;5007937;28;20180;-86
2022/07/04 07:57:12;;;;;;;1.77;1.13;;;;;;;;;;5009929;28;20677;-88
2022/07/04 07:59:38;;;;;;;1.38;1.27;;;;;;;;;;5008466;28;20567;-86
2022/07/04 08:02:04;;;;;;;2.97;1.45;;;;;;;;;;5007675;28;20187;-86
2022/07/04 08:04:37;;;;;;;1.58;1.20;;;;;;;;;;5007513;28;20183;-86
2022/07/04 08:07:04;;;;;;;3.63;1.30;;;;;;;;;;5005380;28;20191;-85
2022/07/04 08:09:30;;;;;;;1.30;1.20;;;;;;;;;;5006997;28;20195;-85
2022/07/04 08:11:56;;;;;;;1.58;1.35;;;;;;;;;;5006211;28;20187;-86
2022/07/04 08:14:22;;;;;;;1.40;1.30;;;;;;;;;;5018271;28;20239;-86
2022/07/04 08:16:48;;;;;;;1.42;1.05;;;;;;;;;;5019887;28;20526;-87
2022/07/04 08:19:14;;;;;;;1.40;1.30;;;;;;;;;;5014886;28;20195;-88
2022/07/04 08:21:40;;;;;;;1.85;1.30;;;;;;;;;;5007593;28;20196;-91
2022/07/04 08:24:07;;;;;;;2.10;1.30;;;;;;;;;;5007437;28;20272;-87
2022/07/04 08:26:33;;;;;;;3.15;1.30;;;;;;;;;;5014117;28;20183;-89
2022/07/04 08:28:59;;;;;;;1.95;1.42;;;;;;;;;;5010917;28;20192;-89
2022/07/04 08:31:25;;;;;;;2.40;1.50;;;;;;;;;;5015021;28;20179;-91
2022/07/04 08:33:52;;;;;;;1.58;1.30;;;;;;;;;;5009070;28;20568;-88
2022/07/04 08:36:19;;;;;;;1.27;1.17;;;;;;;;;;5005311;28;20211;-87
2022/07/04 08:38:45;;;;;;;1.48;1.30;;;;;;;;;;5013927;28;20230;-87
2022/07/04 08:41:12;;;;;;;1.83;1.55;;;;;;;;;;5011888;28;20196;-86
2022/07/04 08:43:38;;;;;;;2.53;1.55;;;;;;;;;;5006223;28;20206;-87
2022/07/04 08:46:05;;;;;;;1.23;1.10;;;;;;;;;;5007435;28;20274;-86
2022/07/04 08:48:31;;;;;;;3.13;1.50;;;;;;;;;;5027293;28;20262;-87
2022/07/04 08:50:59;;;;;;;2.17;1.13;;;;;;;;;;5011570;28;20282;-88
2022/07/04 08:53:30;;;;;;;1.88;1.20;;;;;;;;;;5010643;28;20670;-88
2022/07/04 08:58:43;;;;;;;1.75;1.30;;;;;;;;;;5011727;28;20190;-87
2022/07/04 09:01:15;;;;;;;1.42;1.10;;;;;;;;;;5012587;28;20184;-88
2022/07/04 09:03:42;;;;;;;2.83;1.30;;;;;;;;;;5024483;28;20203;-87
2022/07/04 09:06:09;;;;;;;4.35;1.73;;;;;;;;;;5008241;28;20744;-86
2022/07/04 09:08:35;;;;;;;3.10;1.90;;;;;;;;;;5008378;28;20183;-88
2022/07/04 09:11:02;;;;;;;1.90;1.48;;;;;;;;;;5008854;28;20195;-88
2022/07/04 09:13:28;;;;;;;3.05;1.77;;;;;;;;;;5005989;28;20231;-88
2022/07/04 09:15:54;;;;;;;3.15;1.50;;;;;;;;;;5004045;28;20207;-88
2022/07/04 09:18:25;;;;;;;1.90;1.25;;;;;;;;;;5006737;28;20677;-89
2022/07/04 09:20:51;;;;;;;1.42;1.02;;;;;;;;;;5007782;28;20736;-90
2022/07/04 09:23:26;;;;;;;1.27;1.10;;;;;;;;;;5009981;28;20199;-87
2022/07/04 09:26:11;;;;;;;1.77;1.17;;;;;;;;;;5008638;28;20183;-87
2022/07/04 09:28:37;;;;;;;1.38;1.00;;;;;;;;;;5006597;28;20409;-87
2022/07/04 09:31:13;;;;;;;1.20;1.10;;;;;;;;;;5008522;28;20200;-87
2022/07/04 09:33:49;;;;;;;2.17;1.13;;;;;;;;;;5024073;28;20290;-87
2022/07/04 09:36:16;;;;;;;1.45;1.05;;;;;;;;;;5007429;28;20203;-87
2022/07/04 09:38:42;;;;;;;0.95;0.90;;;;;;;;;;5010759;28;20184;-86
2022/07/04 09:41:29;;;;;;;2.80;1.15;;;;;;;;;;5007507;28;20183;-87
2022/07/04 09:43:59;;;;;;;1.27;0.82;;;;;;;;;;5006957;28;20245;-87
2022/07/04 09:46:25;;;;;;;2.28;1.33;;;;;;;;;;4999219;28;20183;-87
2022/07/04 09:48:52;;;;;;;2.58;1.10;;;;;;;;;;5004032;28;20183;-86
2022/07/04 09:51:35;;;;;;;1.20;1.10;;;;;;;;;;5004122;28;20214;-86
2022/07/04 09:54:21;;;;;;;1.77;0.90;;;;;;;;;;5021107;28;20662;-87
2022/07/04 09:56:48;;;;;;;2.55;0.85;;;;;;;;;;4997411;28;20203;-86
2022/07/04 09:59:15;;;;;;;2.33;0.90;;;;;;;;;;5004245;28;20732;-87
2022/07/04 10:01:41;;;;;;;1.83;1.00;;;;;;;;;;5004292;28;20246;-87
2022/07/04 10:04:08;;;;;;;2.13;1.20;;;;;;;;;;5004677;28;20260;-86
2022/07/04 10:06:34;;;;;;;3.20;1.23;;;;;;;;;;5003893;28;20188;-87
2022/07/04 10:09:17;;;;;;;1.33;0.90;;;;;;;;;;5005253;28;20696;-87
2022/07/04 10:11:44;;;;;;;0.77;0.75;;;;;;;;;;5021175;28;20184;-87
2022/07/04 10:14:11;;;;;;;1.85;0.75;;;;;;;;;;5006936;28;20203;-86
2022/07/04 10:16:38;;;;;;;1.45;1.00;;;;;;;;;;5006132;28;20203;-87
2022/07/04 10:19:04;;;;;;;1.27;0.77;;;;;;;;;;5004345;28;20188;-86
2022/07/04 10:21:31;;;;;;;2.35;1.10;;;;;;;;;;5003964;28;20203;-86
2022/07/04 10:23:57;;;;;;;1.20;0.90;;;;;;;;;;5005707;28;20658;-86
2022/07/04 10:26:23;;;;;;;1.08;0.93;;;;;;;;;;5005395;28;20187;-86
2022/07/04 10:28:51;;;;;;;1.33;0.90;;;;;;;;;;5019967;28;20200;-86
2022/07/04 10:31:17;;;;;;;0.93;0.80;;;;;;;;;;5004156;28;20278;-86
2022/07/04 10:33:44;;;;;;;0.85;0.80;;;;;;;;;;5004805;28;20546;-86
2022/07/04 10:36:20;;;;;;;2.08;0.88;;;;;;;;;;5003421;28;20203;-87
2022/07/04 10:38:47;;;;;;;0.77;0.77;;;;;;;;;;5004367;28;20211;-87
2022/07/04 10:41:14;;;;;;;2.72;0.68;;;;;;;;;;5002802;28;20792;-87
2022/07/04 10:43:49;;;;;;;1.65;0.90;;;;;;;;;;5003465;28;20198;-87
2022/07/04 10:46:15;;;;;;;1.20;0.63;;;;;;;;;;4995082;28;20731;-86
2022/07/04 10:48:50;;;;;;;0.80;0.60;;;;;;;;;;5004564;28;20191;-86
2022/07/04 10:51:32;;;;;;;1.48;0.73;;;;;;;;;;5001301;28;20661;-88
2022/07/04 10:53:59;;;;;;;1.35;0.70;;;;;;;;;;5018855;28;20306;-86
2022/07/04 10:56:28;;;;;;;0.70;0.70;;;;;;;;;;5001269;28;20230;-86
2022/07/04 10:58:57;;;;;;;2.15;0.80;;;;;;;;;;4991405;28;20214;-86
2022/07/04 11:01:23;;;;;;;1.23;0.80;;;;;;;;;;5003683;28;20404;-87
2022/07/04 11:03:54;;;;;;;1.27;0.60;;;;;;;;;;5002245;28;20841;-87
2022/07/04 11:06:36;;;;;;;0.82;0.80;;;;;;;;;;5003549;28;20680;-87
2022/07/04 11:09:14;;;;;;;1.20;0.90;;;;;;;;;;5003630;28;20273;-86
2022/07/04 11:11:56;;;;;;;0.82;0.63;;;;;;;;;;5001494;28;20450;-87
2022/07/04 11:14:40;;;;;;;1.17;0.60;;;;;;;;;;5001665;28;20720;-86
2022/07/04 11:17:20;;;;;;;1.80;0.80;;;;;;;;;;5003578;28;20218;-87
2022/07/04 11:19:46;;;;;;;1.00;0.60;;;;;;;;;;4995471;28;20176;-88
2022/07/04 11:22:13;;;;;;;1.85;0.70;;;;;;;;;;5002116;28;20203;-87
2022/07/04 11:24:39;;;;;;;0.73;0.63;;;;;;;;;;5002193;28;20673;-88
2022/07/04 11:27:08;;;;;;;0.75;0.75;;;;;;;;;;5002786;28;20192;-86
2022/07/04 11:29:34;;;;;;;0.68;0.50;;;;;;;;;;5002310;28;20195;-86
2022/07/04 11:32:00;;;;;;;2.40;0.60;;;;;;;;;;5002035;28;20282;-87
2022/07/04 11:34:31;;;;;;;0.98;0.50;;;;;;;;;;5002292;28;20617;-87
2022/07/04 11:36:58;;;;;;;0.60;0.60;;;;;;;;;;5001725;28;20465;-88
2022/07/04 11:39:24;;;;;;;1.33;0.50;;;;;;;;;;5001621;28;20184;-87
2022/07/04 11:47:31;;;;;;;1.77;0.70;;;;;;;;;;5007631;28;20318;-86
2022/07/04 11:49:58;;;;;;;1.08;0.50;;;;;;;;;;5002317;28;20182;-87
2022/07/04 11:52:25;;;;;;;0.88;0.50;;;;;;;;;;4995448;28;20211;-87
2022/07/04 11:54:51;;;;;;;0.93;0.50;;;;;;;;;;5005854;28;20196;-87
2022/07/04 11:57:19;;;;;;;0.45;0.45;;;;;;;;;;5006463;28;20211;-87
2022/07/04 11:59:52;;;;;;;0.88;0.50;;;;;;;;;;5006490;28;20676;-87
2022/07/04 12:02:18;;;;;;;0.95;0.52;;;;;;;;;;5004369;28;20228;-88
2022/07/04 12:04:44;;;;;;;1.50;0.52;;;;;;;;;;5005331;28;20222;-87
2022/07/04 12:07:20;;;;;;;1.23;0.85;;;;;;;;;;4997955;28;20223;-87
2022/07/04 12:09:47;;;;;;;0.73;0.50;;;;;;;;;;4997407;28;20186;-87
2022/07/04 12:12:17;;;;;;;0.68;0.60;;;;;;;;;;5005956;28;20183;-88
2022/07/04 12:15:03;;;;;;;0.50;0.50;;;;;;;;;;5006907;28;20175;-87
2022/07/04 12:17:33;;;;;;;0.85;0.60;;;;;;;;;;5004863;28;20222;-87
2022/07/04 12:20:00;;;;;;;1.63;0.60;;;;;;;;;;5021541;28;20191;-87
2022/07/04 12:22:31;;;;;;;1.08;0.60;;;;;;;;;;5004053;28;20219;-87
2022/07/04 12:24:58;;;;;;;0.60;0.45;;;;;;;;;;5005692;28;20187;-87
2022/07/04 12:27:28;;;;;;;0.80;0.70;;;;;;;;;;5005240;28;20195;-87
2022/07/04 12:29:54;;;;;;;0.90;0.50;;;;;;;;;;4994374;28;20203;-86
2022/07/04 12:32:21;;;;;;;0.63;0.40;;;;;;;;;;5012440;28;20283;-87
2022/07/04 12:34:47;;;;;;;0.50;0.40;;;;;;;;;;4996923;28;20214;-87
2022/07/04 12:37:14;;;;;;;0.40;0.40;;;;;;;;;;5004922;28;20261;-87
2022/07/04 12:39:43;;;;;;;0.47;0.40;;;;;;;;;;4998311;28;20190;-86
2022/07/04 12:42:10;;;;;;;1.02;0.50;;;;;;;;;;5004775;28;20187;-87
2022/07/04 12:44:37;;;;;;;0.80;0.43;;;;;;;;;;5005581;28;20195;-88
2022/07/04 12:47:04;;;;;;;0.95;0.50;;;;;;;;;;5006191;28;20278;-86
2022/07/04 12:49:30;;;;;;;0.90;0.50;;;;;;;;;;5006667;28;20454;-87
2022/07/04 12:52:10;;;;;;;0.73;0.50;;;;;;;;;;5010739;28;20274;-86
2022/07/04 12:54:38;;;;;;;0.47;0.40;;;;;;;;;;5013074;28;20183;-85
2022/07/04 12:57:11;;;;;;;0.60;0.32;;;;;;;;;;5013381;28;20207;-86
2022/07/04 12:59:38;;;;;;;0.55;0.40;;;;;;;;;;5014388;28;20202;-88
2022/07/04 13:02:05;;;;;;;0.35;0.30;;;;;;;;;;5011400;28;20191;-86
2022/07/04 13:04:32;;;;;;;0.40;0.30;;;;;;;;;;5009479;28;20176;-86
2022/07/04 13:06:59;;;;;;;0.57;0.40;;;;;;;;;;5013491;28;20179;-86
2022/07/04 13:09:25;;;;;;;0.65;0.40;;;;;;;;;;5010056;28;20601;-86
2022/07/04 13:14:35;;;;;;;0.40;0.32;;;;;;;;;;5010755;28;20270;-86
2022/07/04 13:17:01;;;;;;;0.35;0.30;;;;;;;;;;5008670;28;20220;-87
2022/07/04 13:19:27;;;;;;;0.50;0.32;;;;;;;;;;5010297;28;20190;-86
2022/07/04 13:21:54;;;;;;;0.30;0.30;;;;;;;;;;5008168;28;20250;-87
2022/07/04 13:24:21;;;;;;;0.50;0.30;;;;;;;;;;5008603;28;20254;-89
2022/07/04 13:26:47;;;;;;;0.65;0.30;;;;;;;;;;5008596;28;20653;-87
2022/07/04 13:29:13;;;;;;;1.23;0.60;;;;;;;;;;5008356;28;20247;-86
2022/07/04 13:31:39;;;;;;;0.40;0.40;;;;;;;;;;5011226;28;20214;-87
2022/07/04 13:34:05;;;;;;;0.80;0.40;;;;;;;;;;5010947;28;20215;-86
2022/07/04 13:36:31;;;;;;;0.80;0.25;;;;;;;;;;5009481;28;20573;-87
2022/07/04 13:38:57;;;;;;;1.50;0.30;;;;;;;;;;5010215;28;20188;-86
2022/07/04 13:41:23;;;;;;;1.30;0.40;;;;;;;;;;5009373;28;20184;-86
2022/07/04 13:43:49;;;;;;;0.35;0.30;;;;;;;;;;5027146;28;20231;-87
2022/07/04 13:46:15;;;;;;;1.42;0.52;;;;;;;;;;5026857;28;20180;-87
2022/07/04 13:48:41;;;;;;;0.73;0.40;;;;;;;;;;5010597;28;20205;-87
2022/07/04 13:51:07;;;;;;;0.45;0.43;;;;;;;;;;5006726;28;20195;-89
2022/07/04 13:53:33;;;;;;;1.08;0.30;;;;;;;;;;5007100;28;20208;-88
2022/07/04 13:55:59;;;;;;;0.30;0.30;;;;;;;;;;5004521;28;20204;-89
2022/07/04 13:58:25;;;;;;;0.38;0.30;;;;;;;;;;5003930;28;20237;-88
2022/07/04 14:00:51;;;;;;;0.35;0.35;;;;;;;;;;5006863;28;20557;-86
2022/07/04 14:03:17;;;;;;;0.40;0.30;;;;;;;;;;5008500;28;20203;-87
2022/07/04 14:05:44;;;;;;;0.35;0.35;;;;;;;;;;5007734;28;20183;-87
2022/07/04 14:08:10;;;;;;;0.55;0.30;;;;;;;;;;5009905;28;20190;-87
2022/07/04 14:10:35;;;;;;;0.60;0.32;;;;;;;;;;5007604;28;20499;-87
2022/07/04 14:13:02;;;;;;;1.65;0.30;;;;;;;;;;5007788;28;20294;-87
2022/07/04 14:15:28;;;;;;;0.65;0.50;;;;;;;;;;5023570;28;20725;-87
2022/07/04 14:17:54;;;;;;;1.45;0.40;;;;;;;;;;4997166;28;20198;-88
2022/07/04 14:20:20;;;;;;;1.48;0.30;;;;;;;;;;5005488;28;20183;-87
2022/07/04 14:22:46;;;;;;;0.30;0.30;;;;;;;;;;5004686;28;20369;-87
2022/07/04 14:25:12;;;;;;;0.65;0.30;;;;;;;;;;5006245;28;20186;-87
2022/07/04 14:27:38;;;;;;;0.30;0.30;;;;;;;;;;4996765;28;20191;-87
2022/07/04 14:30:04;;;;;;;1.25;0.40;;;;;;;;;;5005890;28;20578;-87
2022/07/04 14:32:30;;;;;;;0.88;0.40;;;;;;;;;;5023498;28;20231;-88
2022/07/04 14:34:56;;;;;;;1.33;0.38;;;;;;;;;;5009520;28;20614;-87
2022/07/04 14:37:22;;;;;;;2.88;2.00;;;;;;;;;;5005343;28;20238;-86
2022/07/04 14:39:49;;;;;;;1.48;0.60;;;;;;;;;;5005187;28;20303;-86
2022/07/04 14:42:16;;;;;;;0.40;0.35;;;;;;;;;;5004926;28;20183;-89
2022/07/04 14:44:42;;;;;;;0.77;0.50;;;;;;;;;;5014471;28;20209;-86
2022/07/04 14:47:12;;;;;;;1.15;0.45;;;;;;;;;;5009158;28;20192;-87
2022/07/04 14:49:38;;;;;;;1.13;0.50;;;;;;;;;;5009578;28;20198;-86
2022/07/04 14:52:04;;;;;;;1.17;0.50;;;;;;;;;;5008346;28;20191;-87
2022/07/04 14:54:30;;;;;;;1.30;0.60;;;;;;;;;;5008537;28;20278;-85
2022/07/04 14:56:58;;;;;;;1.05;0.50;;;;;;;;;;5008296;28;20290;-86
2022/07/04 14:59:24;;;;;;;0.68;0.47;;;;;;;;;;5024038;28;20254;-86
2022/07/04 15:01:52;;;;;;;0.60;0.30;;;;;;;;;;5006807;28;20191;-88